Huvudsida
METAR-TAF:

METAR-TAF

Flygplatser :

Atka, Alaska, USA

latitud: 52-13-13N, longitud: 174-12-23W, höjd: 17 m

Aktuellt väderrapport

Denna rapport gjordes för 43 minuter sedan, klockan 04:56 UTC
Vind 5 kt från sydost
Temperatur 10°C
Fuktighet 100%
Tryck 1011 hPa
Sikt: 14.5 km
Mulet på en höjd av 500 ft

METAR: PAAK 230456Z AUTO 13005KT 9SM OVC005 10/10 A2986 RMK AO2 SLP111 T01000100 TSNO

Tid: 21:39 (05:39 UTC)


TAF: saknas

Aktuella väderrapporter och prognoser från 4000 flygplatser (METAR- och TAF-rapporter).

De tillgängliga stationerna syns som gula och röda prickar på kartan.

För musen över prickarna för att se namnen på stationerna.

Klicka sedan för att få väderrapporter och prognoser.

För att ändra kartan: Klicka på de gröna knapparna med ett svart kors på för att zooma in; den gröna knappen med ett streck på för att zooma ut; eller på de gröna pilarna för angränsande kartor.


METAR-TAF: